sensor_id;sensor_type;location;lat;lon;timestamp;pressure;altitude;pressure_sealevel;temperature;humidity
59493;BME280;45497;43.996;22.876;2023-04-06T00:01:25;101079.44;;;4.90;56.38
59493;BME280;45497;43.996;22.876;2023-04-06T00:03:50;101065.69;;;4.97;56.04
59493;BME280;45497;43.996;22.876;2023-04-06T00:06:16;101073.84;;;5.15;55.94
59493;BME280;45497;43.996;22.876;2023-04-06T00:08:41;101060.31;;;4.88;56.79
59493;BME280;45497;43.996;22.876;2023-04-06T00:11:08;101061.34;;;5.08;56.44
59493;BME280;45497;43.996;22.876;2023-04-06T00:13:34;101054.94;;;4.89;56.19
59493;BME280;45497;43.996;22.876;2023-04-06T00:15:59;101055.06;;;4.99;56.58
59493;BME280;45497;43.996;22.876;2023-04-06T00:18:25;101066.84;;;5.05;56.45
59493;BME280;45497;43.996;22.876;2023-04-06T00:20:51;101049.78;;;4.99;56.42
59493;BME280;45497;43.996;22.876;2023-04-06T00:23:17;101048.50;;;5.26;55.87
59493;BME280;45497;43.996;22.876;2023-04-06T00:25:43;101052.47;;;5.41;55.87
59493;BME280;45497;43.996;22.876;2023-04-06T00:28:08;101042.72;;;5.53;55.13
59493;BME280;45497;43.996;22.876;2023-04-06T00:30:34;101047.56;;;5.36;55.37
59493;BME280;45497;43.996;22.876;2023-04-06T00:33:00;101046.03;;;5.34;55.45
59493;BME280;45497;43.996;22.876;2023-04-06T00:35:26;101041.00;;;5.42;55.48
59493;BME280;45497;43.996;22.876;2023-04-06T00:37:51;101043.88;;;5.39;55.34
59493;BME280;45497;43.996;22.876;2023-04-06T00:40:17;101042.59;;;5.33;55.12
59493;BME280;45497;43.996;22.876;2023-04-06T00:42:43;101038.34;;;5.21;55.10
59493;BME280;45497;43.996;22.876;2023-04-06T00:45:09;101043.38;;;4.92;55.78
59493;BME280;45497;43.996;22.876;2023-04-06T00:47:35;101039.56;;;5.17;55.93
59493;BME280;45497;43.996;22.876;2023-04-06T00:50:00;101034.13;;;5.30;55.17
59493;BME280;45497;43.996;22.876;2023-04-06T00:52:26;101035.56;;;5.02;55.83
59493;BME280;45497;43.996;22.876;2023-04-06T00:54:51;101023.72;;;5.28;55.54
59493;BME280;45497;43.996;22.876;2023-04-06T00:57:17;101001.59;;;5.31;54.96
59493;BME280;45497;43.996;22.876;2023-04-06T00:59:43;101011.53;;;5.27;54.74
59493;BME280;45497;43.996;22.876;2023-04-06T01:02:09;101016.75;;;5.17;55.15
59493;BME280;45497;43.996;22.876;2023-04-06T01:04:35;101015.34;;;5.13;55.42
59493;BME280;45497;43.996;22.876;2023-04-06T01:07:01;101003.41;;;5.09;54.89
59493;BME280;45497;43.996;22.876;2023-04-06T01:09:30;101009.97;;;5.15;55.07
59493;BME280;45497;43.996;22.876;2023-04-06T01:11:56;101010.78;;;5.15;54.71
59493;BME280;45497;43.996;22.876;2023-04-06T01:14:23;101014.31;;;5.05;54.66
59493;BME280;45497;43.996;22.876;2023-04-06T01:16:49;101005.59;;;5.04;55.09
59493;BME280;45497;43.996;22.876;2023-04-06T01:19:14;101001.75;;;5.08;55.07
59493;BME280;45497;43.996;22.876;2023-04-06T01:21:41;100998.28;;;5.29;54.64
59493;BME280;45497;43.996;22.876;2023-04-06T01:24:07;100986.53;;;5.33;53.91
59493;BME280;45497;43.996;22.876;2023-04-06T01:26:34;100989.44;;;5.30;53.87
59493;BME280;45497;43.996;22.876;2023-04-06T01:29:00;100996.63;;;5.28;53.97
59493;BME280;45497;43.996;22.876;2023-04-06T01:31:26;100995.59;;;5.19;54.08
59493;BME280;45497;43.996;22.876;2023-04-06T01:33:52;100994.13;;;5.26;54.49
59493;BME280;45497;43.996;22.876;2023-04-06T01:36:18;100991.38;;;5.28;53.82
59493;BME280;45497;43.996;22.876;2023-04-06T01:38:43;100987.31;;;5.45;53.92
59493;BME280;45497;43.996;22.876;2023-04-06T01:41:09;100978.59;;;5.44;53.60
59493;BME280;45497;43.996;22.876;2023-04-06T01:43:35;100975.63;;;5.59;53.12
59493;BME280;45497;43.996;22.876;2023-04-06T01:46:00;100975.22;;;5.63;53.13
59493;BME280;45497;43.996;22.876;2023-04-06T01:48:26;100985.94;;;5.81;53.15
59493;BME280;45497;43.996;22.876;2023-04-06T01:50:52;100978.63;;;5.54;52.98
59493;BME280;45497;43.996;22.876;2023-04-06T01:53:18;100979.34;;;5.56;53.14
59493;BME280;45497;43.996;22.876;2023-04-06T01:55:44;100976.19;;;5.62;52.84
59493;BME280;45497;43.996;22.876;2023-04-06T01:58:09;100959.09;;;5.47;52.96
59493;BME280;45497;43.996;22.876;2023-04-06T02:00:35;100962.84;;;5.54;53.34
59493;BME280;45497;43.996;22.876;2023-04-06T02:03:01;100959.41;;;5.53;52.25
59493;BME280;45497;43.996;22.876;2023-04-06T02:05:27;100961.00;;;5.66;52.14
59493;BME280;45497;43.996;22.876;2023-04-06T02:07:53;100967.31;;;5.63;52.39
59493;BME280;45497;43.996;22.876;2023-04-06T02:10:18;100964.69;;;5.63;52.51
59493;BME280;45497;43.996;22.876;2023-04-06T02:12:44;100961.00;;;5.66;52.01
59493;BME280;45497;43.996;22.876;2023-04-06T02:15:10;100959.63;;;5.71;51.92
59493;BME280;45497;43.996;22.876;2023-04-06T02:17:35;100965.59;;;5.73;52.26
59493;BME280;45497;43.996;22.876;2023-04-06T02:20:01;100959.31;;;5.65;51.75
59493;BME280;45497;43.996;22.876;2023-04-06T02:22:26;100966.38;;;5.64;51.93
59493;BME280;45497;43.996;22.876;2023-04-06T02:24:52;100964.47;;;5.76;51.76
59493;BME280;45497;43.996;22.876;2023-04-06T02:27:17;100953.22;;;5.64;51.56
59493;BME280;45497;43.996;22.876;2023-04-06T02:29:43;100959.63;;;5.71;51.69
59493;BME280;45497;43.996;22.876;2023-04-06T02:32:08;100958.03;;;5.59;51.63
59493;BME280;45497;43.996;22.876;2023-04-06T02:34:34;100954.19;;;5.63;51.75
59493;BME280;45497;43.996;22.876;2023-04-06T02:37:00;100947.56;;;5.69;51.24
59493;BME280;45497;43.996;22.876;2023-04-06T02:39:25;100951.16;;;5.68;51.16
59493;BME280;45497;43.996;22.876;2023-04-06T02:41:51;100951.84;;;5.70;51.06
59493;BME280;45497;43.996;22.876;2023-04-06T02:44:16;100949.78;;;5.64;51.21
59493;BME280;45497;43.996;22.876;2023-04-06T02:46:42;100956.31;;;5.48;51.34
59493;BME280;45497;43.996;22.876;2023-04-06T02:49:07;100954.22;;;5.42;51.72
59493;BME280;45497;43.996;22.876;2023-04-06T02:51:33;100956.81;;;5.63;51.29
59493;BME280;45497;43.996;22.876;2023-04-06T02:53:59;100950.19;;;5.38;51.60
59493;BME280;45497;43.996;22.876;2023-04-06T02:56:24;100955.97;;;5.32;51.81
59493;BME280;45497;43.996;22.876;2023-04-06T02:58:50;100961.91;;;5.55;51.22
59493;BME280;45497;43.996;22.876;2023-04-06T03:01:15;100942.88;;;5.42;51.33
59493;BME280;45497;43.996;22.876;2023-04-06T03:03:41;100948.22;;;5.30;51.40
59493;BME280;45497;43.996;22.876;2023-04-06T03:06:07;100954.56;;;5.28;51.65
59493;BME280;45497;43.996;22.876;2023-04-06T03:08:32;100950.19;;;5.38;51.13
59493;BME280;45497;43.996;22.876;2023-04-06T03:10:58;100954.19;;;5.11;51.35
59493;BME280;45497;43.996;22.876;2023-04-06T03:13:23;100951.97;;;5.38;51.17
59493;BME280;45497;43.996;22.876;2023-04-06T03:15:49;100942.25;;;5.28;50.47
59493;BME280;45497;43.996;22.876;2023-04-06T03:18:14;100948.81;;;5.44;50.38
59493;BME280;45497;43.996;22.876;2023-04-06T03:20:40;100946.75;;;5.47;50.19
59493;BME280;45497;43.996;22.876;2023-04-06T03:23:05;100948.47;;;5.27;50.33
59493;BME280;45497;43.996;22.876;2023-04-06T03:25:31;100940.03;;;5.03;50.63
59493;BME280;45497;43.996;22.876;2023-04-06T03:27:56;100945.22;;;5.14;50.76
59493;BME280;45497;43.996;22.876;2023-04-06T03:30:22;100942.41;;;5.36;51.06
59493;BME280;45497;43.996;22.876;2023-04-06T03:32:47;100938.13;;;5.35;49.99
59493;BME280;45497;43.996;22.876;2023-04-06T03:35:13;100938.16;;;5.14;50.20
59493;BME280;45497;43.996;22.876;2023-04-06T03:37:39;100944.91;;;5.38;50.24
59493;BME280;45497;43.996;22.876;2023-04-06T03:40:05;100935.84;;;5.42;49.98
59493;BME280;45497;43.996;22.876;2023-04-06T03:42:30;100942.41;;;5.36;50.07
59493;BME280;45497;43.996;22.876;2023-04-06T03:44:58;100925.31;;;5.42;49.67
59493;BME280;45497;43.996;22.876;2023-04-06T03:47:24;100927.38;;;5.39;49.39
59493;BME280;45497;43.996;22.876;2023-04-06T03:49:50;100936.09;;;5.39;49.79
59493;BME280;45497;43.996;22.876;2023-04-06T03:52:15;100935.84;;;5.21;49.79
59493;BME280;45497;43.996;22.876;2023-04-06T03:54:41;100934.25;;;5.30;49.84
59493;BME280;45497;43.996;22.876;2023-04-06T03:57:06;100940.31;;;5.30;49.59
59493;BME280;45497;43.996;22.876;2023-04-06T03:59:32;100934.19;;;5.51;49.67
59493;BME280;45497;43.996;22.876;2023-04-06T04:01:57;100928.22;;;5.49;49.51
59493;BME280;45497;43.996;22.876;2023-04-06T04:04:23;100934.47;;;5.48;49.02
59493;BME280;45497;43.996;22.876;2023-04-06T04:06:48;100930.72;;;5.50;49.29
59493;BME280;45497;43.996;22.876;2023-04-06T04:09:14;100921.72;;;5.43;48.95
59493;BME280;45497;43.996;22.876;2023-04-06T04:11:39;100927.72;;;5.24;49.33
59493;BME280;45497;43.996;22.876;2023-04-06T04:14:05;100928.28;;;5.28;49.19
59493;BME280;45497;43.996;22.876;2023-04-06T04:16:30;100923.59;;;5.31;49.00
59493;BME280;45497;43.996;22.876;2023-04-06T04:18:56;100937.72;;;5.40;49.25
59493;BME280;45497;43.996;22.876;2023-04-06T04:21:23;100928.78;;;5.22;49.21
59493;BME280;45497;43.996;22.876;2023-04-06T04:23:48;100940.44;;;5.50;48.82
59493;BME280;45497;43.996;22.876;2023-04-06T04:26:14;100930.50;;;5.63;48.61
59493;BME280;45497;43.996;22.876;2023-04-06T04:28:40;100927.38;;;5.39;48.70
59493;BME280;45497;43.996;22.876;2023-04-06T04:31:05;100932.63;;;5.39;48.96
59493;BME280;45497;43.996;22.876;2023-04-06T04:33:31;100927.28;;;5.50;49.08
59493;BME280;45497;43.996;22.876;2023-04-06T04:35:56;100925.56;;;5.39;49.34
59493;BME280;45497;43.996;22.876;2023-04-06T04:38:22;100931.53;;;5.41;48.61
59493;BME280;45497;43.996;22.876;2023-04-06T04:40:47;100939.16;;;5.44;49.10
59493;BME280;45497;43.996;22.876;2023-04-06T04:43:13;100940.94;;;5.44;48.61
59493;BME280;45497;43.996;22.876;2023-04-06T04:45:39;100948.88;;;5.53;48.94
59493;BME280;45497;43.996;22.876;2023-04-06T04:48:04;100939.84;;;5.46;49.09
59493;BME280;45497;43.996;22.876;2023-04-06T04:50:31;100942.88;;;5.42;48.65
59493;BME280;45497;43.996;22.876;2023-04-06T04:52:56;100945.56;;;5.51;48.64
59493;BME280;45497;43.996;22.876;2023-04-06T04:55:22;100939.41;;;5.72;48.28
59493;BME280;45497;43.996;22.876;2023-04-06T04:57:47;100940.97;;;5.74;48.93
59493;BME280;45497;43.996;22.876;2023-04-06T05:00:14;100928.63;;;5.75;47.83
59493;BME280;45497;43.996;22.876;2023-04-06T05:02:39;100954.00;;;5.86;47.99
59493;BME280;45497;43.996;22.876;2023-04-06T05:05:05;100945.66;;;5.81;48.49
59493;BME280;45497;43.996;22.876;2023-04-06T05:07:31;100941.84;;;5.94;48.51
59493;BME280;45497;43.996;22.876;2023-04-06T05:09:56;100948.47;;;5.89;47.93
59493;BME280;45497;43.996;22.876;2023-04-06T05:12:22;100948.06;;;5.93;47.72
59493;BME280;45497;43.996;22.876;2023-04-06T05:14:47;100933.72;;;6.07;47.71
59493;BME280;45497;43.996;22.876;2023-04-06T05:17:13;100947.31;;;6.12;47.42
59493;BME280;45497;43.996;22.876;2023-04-06T05:19:38;100949.41;;;6.19;46.95
59493;BME280;45497;43.996;22.876;2023-04-06T05:22:04;100951.59;;;6.13;47.52
59493;BME280;45497;43.996;22.876;2023-04-06T05:24:30;100939.19;;;6.25;47.13
59493;BME280;45497;43.996;22.876;2023-04-06T05:26:55;100936.13;;;6.30;47.15
59493;BME280;45497;43.996;22.876;2023-04-06T05:29:21;100941.94;;;6.34;47.21
59493;BME280;45497;43.996;22.876;2023-04-06T05:31:46;100933.47;;;6.30;46.60
59493;BME280;45497;43.996;22.876;2023-04-06T05:34:12;100938.75;;;6.30;46.86
59493;BME280;45497;43.996;22.876;2023-04-06T05:36:38;100924.75;;;6.29;46.16
59493;BME280;45497;43.996;22.876;2023-04-06T05:39:05;100917.69;;;6.30;46.61
59493;BME280;45497;43.996;22.876;2023-04-06T05:41:30;100921.88;;;6.32;46.91
59493;BME280;45497;43.996;22.876;2023-04-06T05:43:56;100930.44;;;6.35;46.52
59493;BME280;45497;43.996;22.876;2023-04-06T05:46:22;100922.94;;;6.20;45.89
59493;BME280;45497;43.996;22.876;2023-04-06T05:48:48;100920.88;;;6.34;46.34
59493;BME280;45497;43.996;22.876;2023-04-06T05:51:13;100919.38;;;6.60;45.72
59493;BME280;45497;43.996;22.876;2023-04-06T05:53:39;100908.97;;;6.68;45.85
59493;BME280;45497;43.996;22.876;2023-04-06T05:56:05;100908.13;;;6.78;45.71
59493;BME280;45497;43.996;22.876;2023-04-06T05:58:30;100902.97;;;6.96;45.56
59493;BME280;45497;43.996;22.876;2023-04-06T06:00:59;100918.06;;;7.03;45.33
59493;BME280;45497;43.996;22.876;2023-04-06T06:03:25;100911.94;;;7.13;45.41
59493;BME280;45497;43.996;22.876;2023-04-06T06:05:50;100904.72;;;7.24;45.26
59493;BME280;45497;43.996;22.876;2023-04-06T06:08:16;100911.53;;;7.17;44.53
59493;BME280;45497;43.996;22.876;2023-04-06T06:10:41;100902.25;;;7.03;45.22
59493;BME280;45497;43.996;22.876;2023-04-06T06:13:07;100911.31;;;6.81;44.75
59493;BME280;45497;43.996;22.876;2023-04-06T06:15:32;100894.69;;;6.71;44.97
59493;BME280;45497;43.996;22.876;2023-04-06T06:17:58;100892.72;;;6.73;44.61
59493;BME280;45497;43.996;22.876;2023-04-06T06:20:24;100899.91;;;7.00;44.89
59493;BME280;45497;43.996;22.876;2023-04-06T06:22:50;100890.75;;;7.04;44.40
59493;BME280;45497;43.996;22.876;2023-04-06T06:25:15;100892.00;;;7.10;43.66
59493;BME280;45497;43.996;22.876;2023-04-06T06:27:41;100884.50;;;7.05;43.70
59493;BME280;45497;43.996;22.876;2023-04-06T06:30:07;100884.06;;;7.10;43.90
59493;BME280;45497;43.996;22.876;2023-04-06T06:32:33;100881.59;;;7.46;43.72
59493;BME280;45497;43.996;22.876;2023-04-06T06:34:58;100882.88;;;7.42;43.19
59493;BME280;45497;43.996;22.876;2023-04-06T06:37:24;100881.75;;;7.44;43.40
59493;BME280;45497;43.996;22.876;2023-04-06T06:39:49;100867.41;;;7.47;43.15
59493;BME280;45497;43.996;22.876;2023-04-06T06:42:15;100871.09;;;7.64;43.45
59493;BME280;45497;43.996;22.876;2023-04-06T06:44:41;100885.94;;;7.65;42.62
59493;BME280;45497;43.996;22.876;2023-04-06T06:47:06;100876.84;;;7.77;42.04
59493;BME280;45497;43.996;22.876;2023-04-06T06:49:31;100879.34;;;7.51;41.23
59493;BME280;45497;43.996;22.876;2023-04-06T06:51:57;100861.13;;;7.58;41.91
59493;BME280;45497;43.996;22.876;2023-04-06T06:54:22;100880.97;;;7.62;41.61
59493;BME280;45497;43.996;22.876;2023-04-06T06:56:48;100887.97;;;7.43;41.04
59493;BME280;45497;43.996;22.876;2023-04-06T06:59:13;100886.81;;;7.28;41.28
59493;BME280;45497;43.996;22.876;2023-04-06T07:01:41;100878.72;;;7.67;41.63
59493;BME280;45497;43.996;22.876;2023-04-06T07:04:06;100885.25;;;7.63;41.39
59493;BME280;45497;43.996;22.876;2023-04-06T07:06:35;100894.06;;;7.81;41.18
59493;BME280;45497;43.996;22.876;2023-04-06T07:09:00;100887.97;;;7.99;41.20
59493;BME280;45497;43.996;22.876;2023-04-06T07:11:26;100882.25;;;8.03;40.69
59493;BME280;45497;43.996;22.876;2023-04-06T07:13:51;100876.84;;;7.77;40.61
59493;BME280;45497;43.996;22.876;2023-04-06T07:16:17;100886.88;;;7.74;40.95
59493;BME280;45497;43.996;22.876;2023-04-06T07:18:42;100875.50;;;7.73;40.54
59493;BME280;45497;43.996;22.876;2023-04-06T07:21:08;100879.47;;;8.05;40.56
59493;BME280;45497;43.996;22.876;2023-04-06T07:23:33;100877.81;;;8.22;41.01
59493;BME280;45497;43.996;22.876;2023-04-06T07:25:59;100866.59;;;8.56;39.99
59493;BME280;45497;43.996;22.876;2023-04-06T07:28:25;100872.41;;;8.59;39.79
59493;BME280;45497;43.996;22.876;2023-04-06T07:30:50;100862.41;;;8.71;39.72
59493;BME280;45497;43.996;22.876;2023-04-06T07:33:16;100861.44;;;8.54;39.11
59493;BME280;45497;43.996;22.876;2023-04-06T07:35:41;100869.88;;;8.40;36.39
59493;BME280;45497;43.996;22.876;2023-04-06T07:38:07;100862.53;;;8.44;35.62
59493;BME280;45497;43.996;22.876;2023-04-06T07:40:32;100852.97;;;8.69;35.25
59493;BME280;45497;43.996;22.876;2023-04-06T07:42:58;100850.34;;;8.69;34.41
59493;BME280;45497;43.996;22.876;2023-04-06T07:45:24;100852.78;;;8.44;33.94
59493;BME280;45497;43.996;22.876;2023-04-06T07:47:49;100859.78;;;8.53;34.04
59493;BME280;45497;43.996;22.876;2023-04-06T07:50:15;100855.72;;;8.85;34.54
59493;BME280;45497;43.996;22.876;2023-04-06T07:52:41;100856.84;;;8.56;33.51
59493;BME280;45497;43.996;22.876;2023-04-06T07:55:07;100865.25;;;8.78;33.54
59493;BME280;45497;43.996;22.876;2023-04-06T07:57:32;100876.72;;;8.87;33.14
59493;BME280;45497;43.996;22.876;2023-04-06T07:59:58;100857.44;;;8.68;32.87
59493;BME280;45497;43.996;22.876;2023-04-06T08:02:23;100862.78;;;8.58;33.07
59493;BME280;45497;43.996;22.876;2023-04-06T08:04:49;100838.53;;;8.81;33.23
59493;BME280;45497;43.996;22.876;2023-04-06T08:07:14;100846.81;;;8.86;33.64
59493;BME280;45497;43.996;22.876;2023-04-06T08:09:40;100851.47;;;8.92;33.43
59493;BME280;45497;43.996;22.876;2023-04-06T08:12:05;100851.06;;;8.79;33.56
59493;BME280;45497;43.996;22.876;2023-04-06T08:14:31;100843.56;;;8.66;33.05
59493;BME280;45497;43.996;22.876;2023-04-06T08:16:56;100860.03;;;8.86;33.48
59493;BME280;45497;43.996;22.876;2023-04-06T08:19:22;100863.13;;;8.82;33.51
59493;BME280;45497;43.996;22.876;2023-04-06T08:21:48;100861.44;;;8.98;33.53
59493;BME280;45497;43.996;22.876;2023-04-06T08:24:14;100853.53;;;9.07;33.29
59493;BME280;45497;43.996;22.876;2023-04-06T08:26:40;100849.13;;;8.63;33.25
59493;BME280;45497;43.996;22.876;2023-04-06T08:29:05;100828.09;;;8.79;34.54
59493;BME280;45497;43.996;22.876;2023-04-06T08:31:34;100847.53;;;8.70;34.19
59493;BME280;45497;43.996;22.876;2023-04-06T08:34:00;100842.19;;;8.62;34.26
59493;BME280;45497;43.996;22.876;2023-04-06T08:36:26;100845.63;;;8.80;33.76
59493;BME280;45497;43.996;22.876;2023-04-06T08:38:52;100850.91;;;9.07;33.70
59493;BME280;45497;43.996;22.876;2023-04-06T08:41:19;100850.00;;;9.24;33.23
59493;BME280;45497;43.996;22.876;2023-04-06T08:44:03;100837.06;;;8.87;32.99
59493;BME280;45497;43.996;22.876;2023-04-06T08:46:30;100824.47;;;9.07;34.26
59493;BME280;45497;43.996;22.876;2023-04-06T08:49:00;100835.00;;;8.98;33.58
59493;BME280;45497;43.996;22.876;2023-04-06T08:51:28;100843.34;;;9.12;33.21
59493;BME280;45497;43.996;22.876;2023-04-06T08:53:54;100850.53;;;9.02;33.58
59493;BME280;45497;43.996;22.876;2023-04-06T08:56:25;100832.09;;;8.84;32.76
59493;BME280;45497;43.996;22.876;2023-04-06T08:58:53;100826.22;;;8.98;33.74
59493;BME280;45497;43.996;22.876;2023-04-06T09:01:23;100818.56;;;9.21;33.67
59493;BME280;45497;43.996;22.876;2023-04-06T09:03:51;100842.00;;;9.42;33.19
59493;BME280;45497;43.996;22.876;2023-04-06T09:06:18;100825.03;;;9.27;32.70
59493;BME280;45497;43.996;22.876;2023-04-06T09:08:43;100816.28;;;8.92;33.53
59493;BME280;45497;43.996;22.876;2023-04-06T09:11:09;100841.84;;;9.09;34.03
59493;BME280;45497;43.996;22.876;2023-04-06T09:13:48;100822.91;;;9.22;33.37
59493;BME280;45497;43.996;22.876;2023-04-06T09:16:15;100821.66;;;9.43;33.21
59493;BME280;45497;43.996;22.876;2023-04-06T09:18:42;100830.09;;;9.46;32.63
59493;BME280;45497;43.996;22.876;2023-04-06T09:21:08;100815.84;;;9.39;33.30
59493;BME280;45497;43.996;22.876;2023-04-06T09:23:34;100824.19;;;9.61;33.24
59493;BME280;45497;43.996;22.876;2023-04-06T09:26:12;100813.91;;;9.57;32.89
59493;BME280;45497;43.996;22.876;2023-04-06T09:28:49;100804.19;;;9.24;33.35
59493;BME280;45497;43.996;22.876;2023-04-06T09:31:16;100802.16;;;9.52;33.02
59493;BME280;45497;43.996;22.876;2023-04-06T09:33:44;100814.97;;;9.81;33.35
59493;BME280;45497;43.996;22.876;2023-04-06T09:36:11;100809.97;;;9.70;33.37
59493;BME280;45497;43.996;22.876;2023-04-06T09:38:37;100806.78;;;9.50;32.97
59493;BME280;45497;43.996;22.876;2023-04-06T09:41:03;100813.44;;;9.70;32.80
59493;BME280;45497;43.996;22.876;2023-04-06T09:43:29;100811.34;;;9.82;32.64
59493;BME280;45497;43.996;22.876;2023-04-06T09:45:56;100806.88;;;9.91;32.74
59493;BME280;45497;43.996;22.876;2023-04-06T09:48:22;100817.41;;;9.58;31.91
59493;BME280;45497;43.996;22.876;2023-04-06T09:50:50;100803.56;;;9.81;32.22
59493;BME280;45497;43.996;22.876;2023-04-06T09:53:19;100800.59;;;10.00;32.40
59493;BME280;45497;43.996;22.876;2023-04-06T09:55:46;100804.38;;;9.81;32.25
59493;BME280;45497;43.996;22.876;2023-04-06T09:58:19;100822.25;;;9.79;31.49
59493;BME280;45497;43.996;22.876;2023-04-06T10:00:59;100792.66;;;9.84;31.94
59493;BME280;45497;43.996;22.876;2023-04-06T10:03:54;100815.50;;;10.09;32.17
59493;BME280;45497;43.996;22.876;2023-04-06T10:06:23;100797.13;;;9.91;32.96
59493;BME280;45497;43.996;22.876;2023-04-06T10:08:51;100817.34;;;10.25;32.62
59493;BME280;45497;43.996;22.876;2023-04-06T10:11:19;100811.06;;;10.26;32.12
59493;BME280;45497;43.996;22.876;2023-04-06T10:13:47;100791.66;;;10.09;31.87
59493;BME280;45497;43.996;22.876;2023-04-06T10:16:14;100797.41;;;9.72;32.38
59493;BME280;45497;43.996;22.876;2023-04-06T10:18:44;100814.50;;;9.94;31.85
59493;BME280;45497;43.996;22.876;2023-04-06T10:21:14;100804.22;;;9.99;32.01
59493;BME280;45497;43.996;22.876;2023-04-06T10:23:51;100792.81;;;9.82;32.53
59493;BME280;45497;43.996;22.876;2023-04-06T10:26:20;100802.69;;;9.72;32.64
59493;BME280;45497;43.996;22.876;2023-04-06T10:28:47;100799.63;;;10.09;33.36
59493;BME280;45497;43.996;22.876;2023-04-06T10:31:12;100810.22;;;10.09;32.77
59493;BME280;45497;43.996;22.876;2023-04-06T10:33:38;100803.44;;;10.23;32.69
59493;BME280;45497;43.996;22.876;2023-04-06T10:36:14;100795.84;;;10.45;32.34
59493;BME280;45497;43.996;22.876;2023-04-06T10:38:41;100799.97;;;10.23;31.60
59493;BME280;45497;43.996;22.876;2023-04-06T10:41:11;100799.28;;;10.21;31.80
59493;BME280;45497;43.996;22.876;2023-04-06T10:43:39;100796.28;;;9.91;32.90
59493;BME280;45497;43.996;22.876;2023-04-06T10:46:06;100808.06;;;10.13;31.98
59493;BME280;45497;43.996;22.876;2023-04-06T10:48:43;100794.81;;;9.97;33.32
59493;BME280;45497;43.996;22.876;2023-04-06T10:51:12;100789.19;;;10.16;32.74
59493;BME280;45497;43.996;22.876;2023-04-06T10:53:42;100812.50;;;9.88;33.08
59493;BME280;45497;43.996;22.876;2023-04-06T10:56:14;100800.28;;;10.11;32.89
59493;BME280;45497;43.996;22.876;2023-04-06T10:58:47;100794.69;;;10.39;32.73
59493;BME280;45497;43.996;22.876;2023-04-06T11:01:18;100769.00;;;10.07;32.51
59493;BME280;45497;43.996;22.876;2023-04-06T11:03:54;100793.31;;;10.19;32.78
59493;BME280;45497;43.996;22.876;2023-04-06T11:06:24;100787.66;;;9.72;33.46
59493;BME280;45497;43.996;22.876;2023-04-06T11:08:51;100786.69;;;9.82;33.27
59493;BME280;45497;43.996;22.876;2023-04-06T11:11:22;100792.19;;;10.05;33.06
59493;BME280;45497;43.996;22.876;2023-04-06T11:13:55;100799.94;;;9.98;32.96
59493;BME280;45497;43.996;22.876;2023-04-06T11:18:55;100774.31;;;10.07;32.07
59493;BME280;45497;43.996;22.876;2023-04-06T11:21:40;100770.66;;;10.16;32.12
59493;BME280;45497;43.996;22.876;2023-04-06T11:24:22;100788.53;;;10.06;32.08
59493;BME280;45497;43.996;22.876;2023-04-06T11:26:50;100781.44;;;10.31;32.77
59493;BME280;45497;43.996;22.876;2023-04-06T11:29:21;100792.31;;;10.69;32.72
59493;BME280;45497;43.996;22.876;2023-04-06T11:31:47;100770.63;;;10.24;32.37
59493;BME280;45497;43.996;22.876;2023-04-06T11:34:17;100779.41;;;10.17;31.58
59493;BME280;45497;43.996;22.876;2023-04-06T11:36:46;100782.41;;;10.30;32.29
59493;BME280;45497;43.996;22.876;2023-04-06T11:39:20;100793.53;;;10.42;32.49
59493;BME280;45497;43.996;22.876;2023-04-06T11:41:49;100806.22;;;10.71;33.04
59493;BME280;45497;43.996;22.876;2023-04-06T11:44:26;100787.53;;;10.56;32.07
59493;BME280;45497;43.996;22.876;2023-04-06T11:46:57;100786.25;;;10.36;32.57
59493;BME280;45497;43.996;22.876;2023-04-06T11:49:30;100782.28;;;10.48;32.41
59493;BME280;45497;43.996;22.876;2023-04-06T11:51:57;100788.31;;;10.73;32.75
59493;BME280;45497;43.996;22.876;2023-04-06T11:54:35;100782.03;;;10.74;32.07
59493;BME280;45497;43.996;22.876;2023-04-06T11:57:03;100774.44;;;10.55;32.55
59493;BME280;45497;43.996;22.876;2023-04-06T11:59:28;100786.38;;;10.67;32.00
59493;BME280;45497;43.996;22.876;2023-04-06T12:01:54;100782.81;;;10.91;31.84
59493;BME280;45497;43.996;22.876;2023-04-06T12:04:20;100773.81;;;11.08;31.72
59493;BME280;45497;43.996;22.876;2023-04-06T12:06:45;100779.19;;;10.84;31.25
59493;BME280;45497;43.996;22.876;2023-04-06T12:09:11;100781.50;;;10.87;31.41
59493;BME280;45497;43.996;22.876;2023-04-06T12:11:36;100779.09;;;10.52;31.43
59493;BME280;45497;43.996;22.876;2023-04-06T12:14:02;100782.59;;;10.45;30.98
59493;BME280;45497;43.996;22.876;2023-04-06T12:16:30;100771.50;;;10.25;31.79
59493;BME280;45497;43.996;22.876;2023-04-06T12:18:56;100781.84;;;10.84;31.83
59493;BME280;45497;43.996;22.876;2023-04-06T12:21:22;100774.69;;;11.01;31.59
59493;BME280;45497;43.996;22.876;2023-04-06T12:23:47;100788.91;;;11.00;31.19
59493;BME280;45497;43.996;22.876;2023-04-06T12:26:13;100772.41;;;10.81;31.83
59493;BME280;45497;43.996;22.876;2023-04-06T12:28:38;100785.56;;;11.14;31.25
59493;BME280;45497;43.996;22.876;2023-04-06T12:31:04;100784.94;;;11.43;31.47
59493;BME280;45497;43.996;22.876;2023-04-06T12:33:30;100795.13;;;11.23;30.94
59493;BME280;45497;43.996;22.876;2023-04-06T12:35:55;100809.59;;;11.13;31.05
59493;BME280;45497;43.996;22.876;2023-04-06T12:38:21;100784.69;;;10.74;31.28
59493;BME280;45497;43.996;22.876;2023-04-06T12:40:47;100797.78;;;10.76;31.76
59493;BME280;45497;43.996;22.876;2023-04-06T12:43:12;100780.25;;;10.58;31.39
59493;BME280;45497;43.996;22.876;2023-04-06T12:45:39;100775.28;;;10.55;31.10
59493;BME280;45497;43.996;22.876;2023-04-06T12:48:06;100795.03;;;10.44;31.27